WBKL

Details ICAO WBKL (LBU)
Name Labuan
Region Brunei and Malaysia
Timezone Asia/Kuching (UTC+8.0)
Plans Departing 22
Arriving 23
Stats Elevation 101 ft / 31 m (AMSL)
Location 5.300685° 115.250183°
Runways 1
Magnetic Variation 0.311° W
Sunrise 2018-05-19 22:05:40 UTC / 2018-05-20 06:05:40 Local
Sunset 2018-05-20 10:28:11 UTC / 2018-05-20 18:28:11 Local
Advertisement - Login to hide

Runways

ID Width Length Bearing (true) Bearing (mag) Surface Threshold Offset Overrun Length
14 148 ft / 45 m 7,518 ft / 2,292 m 145.81° 146.12° Asphalt 0 ft / 0 m 1,005 ft / 306 m
32 148 ft / 45 m 7,518 ft / 2,292 m 325.81° 326.12° Asphalt 0 ft / 0 m 940 ft / 287 m

Approach Navaids

Runway Type Ident Frequency Range Bearing (true) Bearing (mag) Slope Elevation
14 Localiser ILB 111.10 MHz 18 nm / 33 km 145.82° 146.13° - 101 ft / 31 m (AMSL)
14 Glidescope ILB 111.10 MHz 10 nm / 19 km 145.81° 146.12° 3.00° 101 ft / 31 m (AMSL)

Map

Weather


0- 5 10 15 20 25 30 35+ Temperature / ° C

Clouds and Precipitation
Forecast for 2018-05-20 12:00 UTC. Updated 3 hours ago

Ground ~20,000 ft ~40,000 ft Winds

METAR

WBKL 201400Z VRB02KT 9999 TS SCT010 FEW013CB BKN130 OVC280 25/24 Q1008 RETSRA

TAF

Not found

Frequencies

Recorded 126.85 MHz ATIS
Tower 119.12 MHz TWR
Tower 118.10 MHz TWR
Approach 122.35 MHz APP
Ground 118.35 MHz GND
Tower 119.15 MHz TWR
Approach 119.70 MHz APP
Warning: Do not use this data for real-world aviation or navigation. No guarantee of current accuracy is given.